Time;durP1;ratioP1;P1;durP2;ratioP2;P2;SDS_P1;SDS_P2;PMS_P1;PMS_P2;Temp;Humidity;BMP_temperature;BMP_pressure;BME280_temperature;BME280_humidity;BME280_pressure;Samples;Min_cycle;Max_cycle;Signal;HPM_P1;HPM_P2
2022/11/14 00:00:23;;;;;;;;;;;;;;;14.70;nan;102607.53;5001168;28;19917;-34
2022/11/14 00:02:48;;;;;;;;;;;;;;;14.70;nan;102602.16;4995287;28;19964;-34
2022/11/14 00:05:14;;;;;;;;;;;;;;;14.68;nan;102601.56;4998696;28;19971;-33
2022/11/14 00:07:39;;;;;;;;;;;;;;;14.68;nan;102596.97;5000101;28;20271;-33
2022/11/14 00:10:05;;;;;;;;;;;;;;;14.69;nan;102603.19;5004184;28;19970;-33
2022/11/14 00:12:30;;;;;;;;;;;;;;;14.70;nan;102591.34;5002091;28;19922;-34
2022/11/14 00:14:55;;;;;;;;;;;;;;;14.65;nan;102586.66;5005149;28;19917;-33
2022/11/14 00:17:21;;;;;;;;;;;;;;;14.68;nan;102588.06;5002172;28;19918;-33
2022/11/14 00:19:47;;;;;;;;;;;;;;;14.71;nan;102577.63;5003760;28;19937;-34
2022/11/14 00:22:12;;;;;;;;;;;;;;;14.75;nan;102578.00;4997812;28;20349;-34
2022/11/14 00:24:37;;;;;;;;;;;;;;;14.68;nan;102575.41;5000432;28;19939;-33
2022/11/14 00:27:03;;;;;;;;;;;;;;;14.66;nan;102574.00;5001181;28;20254;-34
2022/11/14 00:29:28;;;;;;;;;;;;;;;14.67;nan;102575.63;5003760;28;19929;-33
2022/11/14 00:31:53;;;;;;;;;;;;;;;14.69;nan;102585.13;5001843;28;19925;-33
2022/11/14 00:34:18;;;;;;;;;;;;;;;14.72;nan;102573.06;5000346;28;20497;-33
2022/11/14 00:36:44;;;;;;;;;;;;;;;14.71;nan;102572.22;5002073;28;19917;-33
2022/11/14 00:39:13;;;;;;;;;;;;;;;14.73;nan;102567.47;5001961;28;20013;-33
2022/11/14 00:41:39;;;;;;;;;;;;;;;14.72;nan;102565.81;5000821;28;19968;-33
2022/11/14 00:44:04;;;;;;;;;;;;;;;14.71;nan;102563.31;4999984;28;19979;-33
2022/11/14 00:46:29;;;;;;;;;;;;;;;14.70;nan;102558.97;4999835;28;19925;-34
2022/11/14 00:48:54;;;;;;;;;;;;;;;14.71;nan;102553.34;5001530;28;19991;-33
2022/11/14 00:51:20;;;;;;;;;;;;;;;14.75;nan;102556.44;5001917;28;19925;-33
2022/11/14 00:53:45;;;;;;;;;;;;;;;14.75;nan;102559.94;5001680;28;19917;-33
2022/11/14 00:56:10;;;;;;;;;;;;;;;14.76;nan;102561.59;5001236;28;19932;-33
2022/11/14 00:58:36;;;;;;;;;;;;;;;14.79;nan;102557.59;5001304;28;19921;-34
2022/11/14 01:01:01;;;;;;;;;;;;;;;14.81;nan;102564.41;4999595;28;19926;-33
2022/11/14 01:03:27;;;;;;;;;;;;;;;14.76;nan;102560.78;5003417;28;19933;-34
2022/11/14 01:05:52;;;;;;;;;;;;;;;14.74;nan;102558.31;5000000;28;20365;-33
2022/11/14 01:08:18;;;;;;;;;;;;;;;14.77;nan;102557.84;4999368;28;19929;-34
2022/11/14 01:10:48;;;;;;;;;;;;;;;14.77;nan;102548.91;5001307;28;19983;-33
2022/11/14 01:13:14;;;;;;;;;;;;;;;14.78;nan;102548.69;5001219;28;19983;-33
2022/11/14 01:15:40;;;;;;;;;;;;;;;14.78;nan;102545.97;5003720;28;19921;-34
2022/11/14 01:18:05;;;;;;;;;;;;;;;14.78;nan;102542.47;5002854;28;19939;-33
2022/11/14 01:20:30;;;;;;;;;;;;;;;14.79;nan;102539.53;5000205;28;19928;-33
2022/11/14 01:22:56;;;;;;;;;;;;;;;14.78;nan;102535.19;5000348;28;19943;-33
2022/11/14 01:25:21;;;;;;;;;;;;;;;14.80;nan;102533.06;5002241;28;19980;-33
2022/11/14 01:27:46;;;;;;;;;;;;;;;14.75;nan;102526.75;5004272;28;19922;-34
2022/11/14 01:30:12;;;;;;;;;;;;;;;14.71;nan;102517.44;4999529;28;20311;-33
2022/11/14 01:32:37;;;;;;;;;;;;;;;14.71;nan;102520.16;5002552;28;19963;-33
2022/11/14 01:35:03;;;;;;;;;;;;;;;14.73;nan;102509.97;5001778;28;20004;-33
2022/11/14 01:37:28;;;;;;;;;;;;;;;14.73;nan;102508.09;5002113;28;19928;-33
2022/11/14 01:39:53;;;;;;;;;;;;;;;14.67;nan;102508.19;5001947;28;19961;-33
2022/11/14 01:42:19;;;;;;;;;;;;;;;14.69;nan;102504.19;4999881;28;19918;-33
2022/11/14 01:44:49;;;;;;;;;;;;;;;14.70;nan;102499.63;5006227;28;19971;-33
2022/11/14 01:47:19;;;;;;;;;;;;;;;14.69;nan;102485.31;5003652;28;20371;-33
2022/11/14 01:49:46;;;;;;;;;;;;;;;14.75;nan;102483.56;5005627;28;20302;-33
2022/11/14 01:52:16;;;;;;;;;;;;;;;14.78;nan;102483.09;5000032;28;20011;-33
2022/11/14 01:54:46;;;;;;;;;;;;;;;14.80;nan;102489.09;4998833;28;20541;-33
2022/11/14 01:57:13;;;;;;;;;;;;;;;14.83;nan;102475.13;5001545;28;20023;-33
2022/11/14 01:59:41;;;;;;;;;;;;;;;14.80;nan;102479.13;5003815;28;19922;-33
2022/11/14 02:02:18;;;;;;;;;;;;;;;14.78;nan;102469.63;5002174;28;19973;-33
2022/11/14 02:04:49;;;;;;;;;;;;;;;14.79;nan;102463.97;4999165;28;20275;-33
2022/11/14 02:07:14;;;;;;;;;;;;;;;14.81;nan;102463.75;5000494;28;19924;-33
2022/11/14 02:09:43;;;;;;;;;;;;;;;14.80;nan;102470.19;5004255;28;19921;-33
2022/11/14 02:12:10;;;;;;;;;;;;;;;14.81;nan;102459.16;5002001;28;19918;-33
2022/11/14 02:14:36;;;;;;;;;;;;;;;14.85;nan;102461.38;4998478;28;20076;-33
2022/11/14 02:17:02;;;;;;;;;;;;;;;14.82;nan;102460.81;5002887;28;20056;-33
2022/11/14 02:19:47;;;;;;;;;;;;;;;14.82;nan;102455.41;5005068;28;21687;-33
2022/11/14 02:22:13;;;;;;;;;;;;;;;14.74;nan;102455.78;5001374;28;20387;-34
2022/11/14 02:24:38;;;;;;;;;;;;;;;14.74;nan;102453.06;5003570;28;19964;-33
2022/11/14 02:27:05;;;;;;;;;;;;;;;14.70;nan;102451.88;5002577;28;20418;-33
2022/11/14 02:29:31;;;;;;;;;;;;;;;14.65;nan;102449.06;5003816;28;19975;-33
2022/11/14 02:31:56;;;;;;;;;;;;;;;14.65;nan;102449.06;5005462;28;19921;-33
2022/11/14 02:34:21;;;;;;;;;;;;;;;14.68;nan;102445.91;5002529;28;19946;-33
2022/11/14 02:36:47;;;;;;;;;;;;;;;14.65;nan;102432.06;5003182;28;19917;-33
2022/11/14 02:39:12;;;;;;;;;;;;;;;14.61;nan;102426.31;5002521;28;19921;-33
2022/11/14 02:41:37;;;;;;;;;;;;;;;14.61;nan;102426.31;4998060;28;19925;-33
2022/11/14 02:44:03;;;;;;;;;;;;;;;14.61;nan;102410.13;5002687;28;19984;-33
2022/11/14 02:46:28;;;;;;;;;;;;;;;14.66;nan;102406.72;5002279;28;19945;-33
2022/11/14 02:48:53;;;;;;;;;;;;;;;14.67;nan;102406.50;5001258;28;20104;-33
2022/11/14 02:51:19;;;;;;;;;;;;;;;14.67;nan;102403.78;5000733;28;20048;-33
2022/11/14 02:53:44;;;;;;;;;;;;;;;14.65;nan;102397.81;5002695;28;19917;-33
2022/11/14 02:56:09;;;;;;;;;;;;;;;14.64;nan;102404.25;5000840;28;20319;-33
2022/11/14 02:58:34;;;;;;;;;;;;;;;14.65;nan;102405.09;5001506;28;19921;-33
2022/11/14 03:01:00;;;;;;;;;;;;;;;14.62;nan;102395.59;5000546;28;19925;-34
2022/11/14 03:03:25;;;;;;;;;;;;;;;14.61;nan;102393.13;5002008;28;19929;-34
2022/11/14 03:05:52;;;;;;;;;;;;;;;14.58;nan;102391.72;5002497;28;20415;-33
2022/11/14 03:08:18;;;;;;;;;;;;;;;14.60;nan;102386.91;5001469;28;19925;-34
2022/11/14 03:10:44;;;;;;;;;;;;;;;14.50;nan;102392.88;5000348;28;19980;-33
2022/11/14 03:13:09;;;;;;;;;;;;;;;14.46;nan;102393.59;5001503;28;19957;-34
2022/11/14 03:15:38;;;;;;;;;;;;;;;14.44;nan;102390.31;5003984;28;21255;-33
2022/11/14 03:18:03;;;;;;;;;;;;;;;14.40;nan;102389.13;5001967;28;19953;-33
2022/11/14 03:20:28;;;;;;;;;;;;;;;14.44;nan;102387.63;4998151;28;19956;-34
2022/11/14 03:22:54;;;;;;;;;;;;;;;14.46;nan;102388.19;4999973;28;19917;-33
2022/11/14 03:25:19;;;;;;;;;;;;;;;14.48;nan;102383.38;5002783;28;20081;-33
2022/11/14 03:27:44;;;;;;;;;;;;;;;14.48;nan;102388.78;5000515;28;20330;-33
2022/11/14 03:30:10;;;;;;;;;;;;;;;14.51;nan;102389.13;5003284;28;19944;-33
2022/11/14 03:32:35;;;;;;;;;;;;;;;14.50;nan;102384.78;4995905;28;19929;-33
2022/11/14 03:35:00;;;;;;;;;;;;;;;14.52;nan;102374.59;5003428;28;20407;-33
2022/11/14 03:37:26;;;;;;;;;;;;;;;14.51;nan;102382.91;5000464;28;19921;-33
2022/11/14 03:39:51;;;;;;;;;;;;;;;14.47;nan;102382.56;5000045;28;19976;-33
2022/11/14 03:42:16;;;;;;;;;;;;;;;14.46;nan;102382.81;4999266;28;19980;-33
2022/11/14 03:44:42;;;;;;;;;;;;;;;14.45;nan;102378.47;4999450;28;19979;-33
2022/11/14 03:47:07;;;;;;;;;;;;;;;14.39;nan;102374.81;5003399;28;20427;-34
2022/11/14 03:49:32;;;;;;;;;;;;;;;14.31;nan;102377.00;5005726;28;19926;-34
2022/11/14 03:51:58;;;;;;;;;;;;;;;14.29;nan;102373.72;5004739;28;20077;-33
2022/11/14 03:54:23;;;;;;;;;;;;;;;14.35;nan;102364.69;5003257;28;19925;-33
2022/11/14 03:56:48;;;;;;;;;;;;;;;14.39;nan;102363.19;5005529;28;19920;-33
2022/11/14 03:59:14;;;;;;;;;;;;;;;14.42;nan;102351.94;5002944;28;19929;-33
2022/11/14 04:01:39;;;;;;;;;;;;;;;14.44;nan;102357.94;5004031;28;20355;-33
2022/11/14 04:04:04;;;;;;;;;;;;;;;14.43;nan;102364.38;5002639;28;19918;-34
2022/11/14 04:06:29;;;;;;;;;;;;;;;14.41;nan;102355.69;5004868;28;19960;-33
2022/11/14 04:08:55;;;;;;;;;;;;;;;14.36;nan;102352.84;5006120;28;20008;-33
2022/11/14 04:11:21;;;;;;;;;;;;;;;14.30;nan;102357.31;5004929;28;19948;-33
2022/11/14 04:13:46;;;;;;;;;;;;;;;14.31;nan;102360.84;5006805;28;19917;-33
2022/11/14 04:16:12;;;;;;;;;;;;;;;14.27;nan;102352.41;5006582;28;19933;-33
2022/11/14 04:18:37;;;;;;;;;;;;;;;14.22;nan;102341.50;5006340;28;19924;-33
2022/11/14 04:21:02;;;;;;;;;;;;;;;14.19;nan;102350.06;5005101;28;19962;-33
2022/11/14 04:23:28;;;;;;;;;;;;;;;14.19;nan;102341.97;5007532;28;19932;-33
2022/11/14 04:25:53;;;;;;;;;;;;;;;14.18;nan;102335.75;5005678;28;19929;-34
2022/11/14 04:28:18;;;;;;;;;;;;;;;14.14;nan;102334.56;5001534;28;20000;-33
2022/11/14 04:30:44;;;;;;;;;;;;;;;14.17;nan;102328.69;5005748;28;19961;-33
2022/11/14 04:33:09;;;;;;;;;;;;;;;14.22;nan;102319.94;5005675;28;20055;-33
2022/11/14 04:35:35;;;;;;;;;;;;;;;14.26;nan;102331.88;5008316;28;20012;-33
2022/11/14 04:38:00;;;;;;;;;;;;;;;14.33;nan;102329.06;5006192;28;19925;-33
2022/11/14 04:40:25;;;;;;;;;;;;;;;14.40;nan;102324.41;5006137;28;19922;-33
2022/11/14 04:42:51;;;;;;;;;;;;;;;14.40;nan;102324.41;5006247;28;19924;-34
2022/11/14 04:45:16;;;;;;;;;;;;;;;14.38;nan;102319.25;5005712;28;19921;-34
2022/11/14 04:47:41;;;;;;;;;;;;;;;14.40;nan;102317.13;5006704;28;19972;-34
2022/11/14 04:50:07;;;;;;;;;;;;;;;14.40;nan;102314.44;5003070;28;20272;-33
2022/11/14 04:52:33;;;;;;;;;;;;;;;14.39;nan;102311.97;5006736;28;19925;-33
2022/11/14 04:54:58;;;;;;;;;;;;;;;14.34;nan;102306.44;5006256;28;19921;-33
2022/11/14 04:57:24;;;;;;;;;;;;;;;14.29;nan;102309.03;5002240;28;19925;-33
2022/11/14 04:59:49;;;;;;;;;;;;;;;14.26;nan;102298.72;5005136;28;19925;-33
2022/11/14 05:02:14;;;;;;;;;;;;;;;14.26;nan;102304.09;5003640;28;19925;-33
2022/11/14 05:04:40;;;;;;;;;;;;;;;14.29;nan;102311.72;5004594;28;19980;-33
2022/11/14 05:07:05;;;;;;;;;;;;;;;14.29;nan;102298.25;4993934;28;20307;-34
2022/11/14 05:09:30;;;;;;;;;;;;;;;14.23;nan;102293.81;4996358;28;20715;-33
2022/11/14 05:11:56;;;;;;;;;;;;;;;14.21;nan;102297.56;4998200;28;20366;-33
2022/11/14 05:14:21;;;;;;;;;;;;;;;14.23;nan;102283.84;4998432;28;20035;-33
2022/11/14 05:16:46;;;;;;;;;;;;;;;14.26;nan;102288.75;4998329;28;19935;-33
2022/11/14 05:19:12;;;;;;;;;;;;;;;14.29;nan;102282.06;4995370;28;20462;-33
2022/11/14 05:21:37;;;;;;;;;;;;;;;14.31;nan;102279.94;5002264;28;20071;-33
2022/11/14 05:24:02;;;;;;;;;;;;;;;14.35;nan;102281.13;4998780;28;19975;-33
2022/11/14 05:26:28;;;;;;;;;;;;;;;14.39;nan;102276.91;4998973;28;20418;-33
2022/11/14 05:28:53;;;;;;;;;;;;;;;14.42;nan;102281.81;5002999;28;20308;-34
2022/11/14 05:31:18;;;;;;;;;;;;;;;14.39;nan;102285.00;5005128;28;20363;-33
2022/11/14 05:33:45;;;;;;;;;;;;;;;14.35;nan;102287.31;5002656;28;19921;-33
2022/11/14 05:36:12;;;;;;;;;;;;;;;14.29;nan;102280.19;5004223;28;20577;-34
2022/11/14 05:38:37;;;;;;;;;;;;;;;14.31;nan;102274.56;5001432;28;20358;-33
2022/11/14 05:41:10;;;;;;;;;;;;;;;14.33;nan;102275.97;5000165;28;20190;-33
2022/11/14 05:43:36;;;;;;;;;;;;;;;14.33;nan;102283.22;5003244;28;19926;-33
2022/11/14 05:46:02;;;;;;;;;;;;;;;14.32;nan;102279.72;5004665;28;19933;-33
2022/11/14 05:48:28;;;;;;;;;;;;;;;14.23;nan;102277.63;5002846;28;19933;-33
2022/11/14 05:50:57;;;;;;;;;;;;;;;14.23;nan;102269.53;4999905;28;19982;-33
2022/11/14 05:53:23;;;;;;;;;;;;;;;14.26;nan;102269.06;5002089;28;20269;-33
2022/11/14 05:55:48;;;;;;;;;;;;;;;14.29;nan;102273.97;5003485;28;19921;-33
2022/11/14 05:58:13;;;;;;;;;;;;;;;14.31;nan;102274.56;5000648;28;19984;-33
2022/11/14 06:00:39;;;;;;;;;;;;;;;14.33;nan;102270.56;5000156;28;19948;-33
2022/11/14 06:03:04;;;;;;;;;;;;;;;14.37;nan;102265.53;5000804;28;19922;-33
2022/11/14 06:05:29;;;;;;;;;;;;;;;14.38;nan;102259.91;5003777;28;19979;-33
2022/11/14 06:07:55;;;;;;;;;;;;;;;14.44;nan;102259.00;5003796;28;19948;-33
2022/11/14 06:10:21;;;;;;;;;;;;;;;14.51;nan;102261.53;4999446;28;20205;-33
2022/11/14 06:12:46;;;;;;;;;;;;;;;14.54;nan;102263.75;5002172;28;19925;-33
2022/11/14 06:15:12;;;;;;;;;;;;;;;14.54;nan;102269.16;5001079;28;19925;-33
2022/11/14 06:17:37;;;;;;;;;;;;;;;14.52;nan;102272.09;5003518;28;20358;-33
2022/11/14 06:20:03;;;;;;;;;;;;;;;14.47;nan;102279.25;5000098;28;19929;-33
2022/11/14 06:22:28;;;;;;;;;;;;;;;14.46;nan;102293.81;5000538;28;19945;-33
2022/11/14 06:24:53;;;;;;;;;;;;;;;14.44;nan;102294.03;4999796;28;19980;-33
2022/11/14 06:27:19;;;;;;;;;;;;;;;14.45;nan;102289.47;5002580;28;20350;-33
2022/11/14 06:29:44;;;;;;;;;;;;;;;14.43;nan;102288.84;4999525;28;19935;-33
2022/11/14 06:32:09;;;;;;;;;;;;;;;14.42;nan;102287.22;4997683;28;19924;-33
2022/11/14 06:34:34;;;;;;;;;;;;;;;14.42;nan;102292.63;5001684;28;19921;-33
2022/11/14 06:37:00;;;;;;;;;;;;;;;14.37;nan;102300.59;5001916;28;19921;-33
2022/11/14 06:39:25;;;;;;;;;;;;;;;14.37;nan;102300.59;4999625;28;19924;-34
2022/11/14 06:41:50;;;;;;;;;;;;;;;14.35;nan;102302.69;5000494;28;19926;-33
2022/11/14 06:44:16;;;;;;;;;;;;;;;14.33;nan;102299.41;4999655;28;19918;-33
2022/11/14 06:46:42;;;;;;;;;;;;;;;14.33;nan;102297.53;5002064;28;19936;-34
2022/11/14 06:49:07;;;;;;;;;;;;;;;14.38;nan;102303.06;5002601;28;19929;-34
2022/11/14 06:51:32;;;;;;;;;;;;;;;14.39;nan;102299.31;5003223;28;19926;-33
2022/11/14 06:53:58;;;;;;;;;;;;;;;14.43;nan;102305.03;5001431;28;19933;-33
2022/11/14 06:56:23;;;;;;;;;;;;;;;14.45;nan;102302.97;5002749;28;20372;-34
2022/11/14 06:58:49;;;;;;;;;;;;;;;14.50;nan;102298.47;5005808;28;19955;-33
2022/11/14 07:01:18;;;;;;;;;;;;;;;14.55;nan;102300.50;5004572;28;19979;-34
2022/11/14 07:03:44;;;;;;;;;;;;;;;14.57;nan;102284.91;5002879;28;20020;-33
2022/11/14 07:06:10;;;;;;;;;;;;;;;14.58;nan;102281.13;5002254;28;20451;-34
2022/11/14 07:08:36;;;;;;;;;;;;;;;14.61;nan;102279.84;5002407;28;19933;-33
2022/11/14 07:13:30;;;;;;;;;;;;;;;14.64;nan;102272.09;4997266;28;19933;-32
2022/11/14 07:15:55;;;;;;;;;;;;;;;14.66;nan;102271.84;5003077;28;20084;-32
2022/11/14 07:18:21;;;;;;;;;;;;;;;14.67;nan;102274.31;5001330;28;20016;-32
2022/11/14 07:20:46;;;;;;;;;;;;;;;14.67;nan;102270.78;5005538;28;20059;-32
2022/11/14 07:23:12;;;;;;;;;;;;;;;14.69;nan;102272.19;5010837;28;19917;-32
2022/11/14 07:25:37;;;;;;;;;;;;;;;14.71;nan;102275.47;5004254;28;19987;-33
2022/11/14 07:28:02;;;;;;;;;;;;;;;14.63;nan;102272.31;5005134;28;19928;-32
2022/11/14 07:30:28;;;;;;;;;;;;;;;14.58;nan;102266.84;5006520;28;19917;-32
2022/11/14 07:32:54;;;;;;;;;;;;;;;14.56;nan;102264.38;5004601;28;19925;-32
2022/11/14 07:35:19;;;;;;;;;;;;;;;14.58;nan;102262.25;5002970;28;19933;-32
2022/11/14 07:37:44;;;;;;;;;;;;;;;14.59;nan;102266.59;5004705;28;19924;-32
2022/11/14 07:40:10;;;;;;;;;;;;;;;14.60;nan;102268.22;5004287;28;19921;-32
2022/11/14 07:42:35;;;;;;;;;;;;;;;14.62;nan;102260.72;5006230;28;20304;-32
2022/11/14 07:45:01;;;;;;;;;;;;;;;14.66;nan;102266.44;5003278;28;20408;-32
2022/11/14 07:47:26;;;;;;;;;;;;;;;14.70;nan;102267.59;5004485;28;20390;-32
2022/11/14 07:49:51;;;;;;;;;;;;;;;14.71;nan;102255.75;5003350;28;19926;-32
2022/11/14 07:52:16;;;;;;;;;;;;;;;14.71;nan;102255.75;5005654;28;20103;-32
2022/11/14 07:54:42;;;;;;;;;;;;;;;14.71;nan;102256.56;5007121;28;19917;-32
2022/11/14 07:57:07;;;;;;;;;;;;;;;14.72;nan;102255.53;5004852;28;21367;-33
2022/11/14 07:59:32;;;;;;;;;;;;;;;14.71;nan;102255.75;5005415;28;20371;-32
2022/11/14 08:01:58;;;;;;;;;;;;;;;14.74;nan;102248.03;5001562;28;19924;-32
2022/11/14 08:04:23;;;;;;;;;;;;;;;14.72;nan;102250.16;5002287;28;19921;-32
2022/11/14 08:06:48;;;;;;;;;;;;;;;14.71;nan;102255.75;5004799;28;19922;-32
2022/11/14 08:09:14;;;;;;;;;;;;;;;14.68;nan;102248.16;5002545;28;19929;-32
2022/11/14 08:11:48;;;;;;;;;;;;;;;14.70;nan;102252.22;5006090;28;20040;-33
2022/11/14 08:14:13;;;;;;;;;;;;;;;14.75;nan;102255.06;5005958;28;19917;-32
2022/11/14 08:16:39;;;;;;;;;;;;;;;14.80;nan;102255.16;5004562;28;20311;-32
2022/11/14 08:19:04;;;;;;;;;;;;;;;14.77;nan;102249.41;5004722;28;19924;-32
2022/11/14 08:21:30;;;;;;;;;;;;;;;14.81;nan;102247.88;5004968;28;19925;-32
2022/11/14 08:23:55;;;;;;;;;;;;;;;14.81;nan;102246.00;5008139;28;20477;-32
2022/11/14 08:26:20;;;;;;;;;;;;;;;14.85;nan;102245.50;5006505;28;19924;-32
2022/11/14 08:28:46;;;;;;;;;;;;;;;14.91;nan;102244.56;5008071;28;19921;-32
2022/11/14 08:31:12;;;;;;;;;;;;;;;14.96;nan;102250.06;5001907;28;19928;-32
2022/11/14 08:33:37;;;;;;;;;;;;;;;14.97;nan;102243.59;5004190;28;19922;-32
2022/11/14 08:36:04;;;;;;;;;;;;;;;15.01;nan;102247.44;5001972;28;20015;-32
2022/11/14 08:38:30;;;;;;;;;;;;;;;15.03;nan;102245.31;5007681;28;19991;-33
2022/11/14 08:41:01;;;;;;;;;;;;;;;14.99;nan;102245.00;5005131;28;19928;-32
2022/11/14 08:43:27;;;;;;;;;;;;;;;14.98;nan;102254.16;5003922;28;19917;-32
2022/11/14 08:45:55;;;;;;;;;;;;;;;14.96;nan;102253.56;5007657;28;20337;-32
2022/11/14 08:48:20;;;;;;;;;;;;;;;14.97;nan;102247.13;5004087;28;19925;-32
2022/11/14 08:50:45;;;;;;;;;;;;;;;15.00;nan;102240.41;5003651;28;19975;-32
2022/11/14 08:53:11;;;;;;;;;;;;;;;15.01;nan;102239.34;5002178;28;20375;-33
2022/11/14 08:55:36;;;;;;;;;;;;;;;15.06;nan;102244.84;5003429;28;19921;-32
2022/11/14 08:58:02;;;;;;;;;;;;;;;15.07;nan;102241.06;5003430;28;19949;-33
2022/11/14 09:00:27;;;;;;;;;;;;;;;15.04;nan;102236.16;5003224;28;19917;-32
2022/11/14 09:02:52;;;;;;;;;;;;;;;15.05;nan;102245.91;5004513;28;19910;-32
2022/11/14 09:05:18;;;;;;;;;;;;;;;15.04;nan;102245.06;5002454;28;19921;-33
2022/11/14 09:07:43;;;;;;;;;;;;;;;15.06;nan;102236.75;5005077;28;19928;-32
2022/11/14 09:10:08;;;;;;;;;;;;;;;15.11;nan;102243.06;5003657;28;19925;-32
2022/11/14 09:12:34;;;;;;;;;;;;;;;15.15;nan;102243.41;5003601;28;20101;-32
2022/11/14 09:14:59;;;;;;;;;;;;;;;15.17;nan;102230.47;5004211;28;19924;-32
2022/11/14 09:17:24;;;;;;;;;;;;;;;15.20;nan;102224.59;5004508;28;20298;-32
2022/11/14 09:19:50;;;;;;;;;;;;;;;15.20;nan;102227.28;5005434;28;20006;-32
2022/11/14 09:22:15;;;;;;;;;;;;;;;15.22;nan;102217.06;5002659;28;20004;-33
2022/11/14 09:24:40;;;;;;;;;;;;;;;15.17;nan;102225.06;5002671;28;20310;-33
2022/11/14 09:27:06;;;;;;;;;;;;;;;15.27;nan;102225.28;5002927;28;19917;-32
2022/11/14 09:29:31;;;;;;;;;;;;;;;15.30;nan;102215.84;5004265;28;19928;-33
2022/11/14 09:31:56;;;;;;;;;;;;;;;15.35;nan;102213.25;5004493;28;19921;-32
2022/11/14 09:34:22;;;;;;;;;;;;;;;15.37;nan;102209.22;4998955;28;20473;-33
2022/11/14 09:36:47;;;;;;;;;;;;;;;15.49;nan;102206.47;5005322;28;19917;-32
2022/11/14 09:39:12;;;;;;;;;;;;;;;15.61;nan;102206.38;5003551;28;19918;-32
2022/11/14 09:41:40;;;;;;;;;;;;;;;15.65;nan;102204.84;5004295;28;20401;-33
2022/11/14 09:44:12;;;;;;;;;;;;;;;15.57;nan;102208.75;5002760;28;20390;-32
2022/11/14 09:46:45;;;;;;;;;;;;;;;15.57;nan;102214.13;5004008;28;19927;-32
2022/11/14 09:49:23;;;;;;;;;;;;;;;15.49;nan;102202.94;5002427;28;20076;-33
2022/11/14 09:51:51;;;;;;;;;;;;;;;15.48;nan;102206.72;5001467;28;20411;-32
2022/11/14 09:54:22;;;;;;;;;;;;;;;15.53;nan;102201.38;5002215;28;19932;-33
2022/11/14 09:56:47;;;;;;;;;;;;;;;15.57;nan;102197.94;5001497;28;20406;-33
2022/11/14 09:59:13;;;;;;;;;;;;;;;15.57;nan;102205.22;5002798;28;19918;-32
2022/11/14 10:01:58;;;;;;;;;;;;;;;15.63;nan;102202.41;5001898;28;19922;-32
2022/11/14 10:04:30;;;;;;;;;;;;;;;15.70;nan;102199.53;5004551;28;19929;-33
2022/11/14 10:07:10;;;;;;;;;;;;;;;15.73;nan;102185.50;5004366;28;19925;-33
2022/11/14 10:10:14;;;;;;;;;;;;;;;15.79;nan;102189.09;5003276;28;19976;-32
2022/11/14 10:12:46;;;;;;;;;;;;;;;15.90;nan;102185.50;4945417;29;20017;-33
2022/11/14 10:15:27;;;;;;;;;;;;;;;16.06;nan;102175.72;4944233;29;19922;-32
2022/11/14 10:18:27;;;;;;;;;;;;;;;16.21;nan;102171.31;4978115;28;20510;-33
2022/11/14 10:20:54;;;;;;;;;;;;;;;16.36;nan;102151.78;4962165;28;19925;-33
2022/11/14 10:23:22;;;;;;;;;;;;;;;16.53;nan;102149.81;4994331;28;19980;-33
2022/11/14 10:25:52;;;;;;;;;;;;;;;16.63;nan;102154.50;5000546;28;19999;-32
2022/11/14 10:28:35;;;;;;;;;;;;;;;16.64;nan;102148.00;5002480;28;20328;-32
2022/11/14 10:31:01;;;;;;;;;;;;;;;16.60;nan;102155.81;5000599;28;19922;-32
2022/11/14 10:33:47;;;;;;;;;;;;;;;16.61;nan;102153.94;5000029;28;20206;-32
2022/11/14 10:36:28;;;;;;;;;;;;;;;16.70;nan;102157.06;5001337;28;20418;-32
2022/11/14 10:39:00;;;;;;;;;;;;;;;16.83;nan;102148.50;5000570;28;19949;-32
2022/11/14 10:41:27;;;;;;;;;;;;;;;16.95;nan;102148.34;5002360;28;19968;-32
2022/11/14 10:43:53;;;;;;;;;;;;;;;17.02;nan;102143.53;5003109;28;20371;-33
2022/11/14 10:46:23;;;;;;;;;;;;;;;17.12;nan;102143.63;5000964;28;19921;-33
2022/11/14 10:48:49;;;;;;;;;;;;;;;17.16;nan;102145.56;5000007;28;19929;-33
2022/11/14 10:51:20;;;;;;;;;;;;;;;17.17;nan;102144.50;5001221;28;19926;-33
2022/11/14 10:53:54;;;;;;;;;;;;;;;17.25;nan;102136.97;5003100;28;19977;-32
2022/11/14 10:56:20;;;;;;;;;;;;;;;17.32;nan;102126.72;5001153;28;19928;-33
2022/11/14 10:58:45;;;;;;;;;;;;;;;17.43;nan;102129.25;5003629;28;19917;-33
2022/11/14 11:01:29;;;;;;;;;;;;;;;17.53;nan;102132.03;5001458;28;20375;-32
2022/11/14 11:03:54;;;;;;;;;;;;;;;17.65;nan;102137.25;5001553;28;20149;-33
2022/11/14 11:06:23;;;;;;;;;;;;;;;17.74;nan;102134.91;5001913;28;20095;-33
2022/11/14 11:11:33;;;;;;;;;;;;;;;17.82;nan;102126.28;5002753;28;19925;-33
2022/11/14 11:14:00;;;;;;;;;;;;;;;17.86;nan;102113.00;5001328;28;19917;-33
2022/11/14 11:16:26;;;;;;;;;;;;;;;17.92;nan;102114.66;5002613;28;20016;-33
2022/11/14 11:18:51;;;;;;;;;;;;;;;17.97;nan;102107.38;5002372;28;20013;-33
2022/11/14 11:21:18;;;;;;;;;;;;;;;18.08;nan;102105.50;5001777;28;20040;-33
2022/11/14 11:23:54;;;;;;;;;;;;;;;18.14;nan;102104.47;5002002;28;19925;-32
2022/11/14 11:26:22;;;;;;;;;;;;;;;18.22;nan;102111.25;5002539;28;20498;-33
2022/11/14 11:29:07;;;;;;;;;;;;;;;18.31;nan;102096.94;4999493;28;20447;-33
2022/11/14 11:31:48;;;;;;;;;;;;;;;18.40;nan;102100.75;4991925;28;20008;-33
2022/11/14 11:34:13;;;;;;;;;;;;;;;18.53;nan;102093.19;5000264;28;20542;-33
2022/11/14 11:36:41;;;;;;;;;;;;;;;18.58;nan;102080.41;5002784;28;19972;-33
2022/11/14 11:39:13;;;;;;;;;;;;;;;18.66;nan;102088.03;5000731;28;20017;-33
2022/11/14 11:41:40;;;;;;;;;;;;;;;18.64;nan;102078.53;5001734;28;20339;-33
2022/11/14 11:44:10;;;;;;;;;;;;;;;18.67;nan;102072.56;4999876;28;19986;-33
2022/11/14 11:47:08;;;;;;;;;;;;;;;18.72;nan;102069.88;5003728;28;19935;-33
2022/11/14 11:49:42;;;;;;;;;;;;;;;18.80;nan;102053.03;4968598;28;19929;-33
2022/11/14 11:52:16;;;;;;;;;;;;;;;18.94;nan;102066.91;5001754;28;19970;-33
2022/11/14 11:54:55;;;;;;;;;;;;;;;18.89;nan;102059.56;5002925;28;19922;-33
2022/11/14 11:57:24;;;;;;;;;;;;;;;18.94;nan;102062.28;5001738;28;19917;-33
2022/11/14 11:59:51;;;;;;;;;;;;;;;19.05;nan;102054.13;5000052;28;19929;-33
2022/11/14 12:02:26;;;;;;;;;;;;;;;19.18;nan;102053.56;5001111;28;20086;-33
2022/11/14 12:04:54;;;;;;;;;;;;;;;19.15;nan;102035.91;4999287;28;19917;-33
2022/11/14 12:07:21;;;;;;;;;;;;;;;19.24;nan;102038.91;5004714;28;20023;-33
2022/11/14 12:09:47;;;;;;;;;;;;;;;19.27;nan;102039.16;5006857;28;19957;-33
2022/11/14 12:12:23;;;;;;;;;;;;;;;19.37;nan;102034.78;5004925;28;19921;-33
2022/11/14 12:15:01;;;;;;;;;;;;;;;19.43;nan;102037.22;5003169;28;19917;-33
2022/11/14 12:17:29;;;;;;;;;;;;;;;19.57;nan;102032.06;5006073;28;20437;-33
2022/11/14 12:20:04;;;;;;;;;;;;;;;19.58;nan;102018.19;4998671;28;19943;-33
2022/11/14 12:22:32;;;;;;;;;;;;;;;19.75;nan;102027.88;4997408;28;20445;-33
2022/11/14 12:25:03;;;;;;;;;;;;;;;20.00;nan;102025.03;5001997;28;19928;-33
2022/11/14 12:27:41;;;;;;;;;;;;;;;20.15;nan;102019.53;5002547;28;20310;-33
2022/11/14 12:30:06;;;;;;;;;;;;;;;20.36;nan;102016.66;5001711;28;19926;-33
2022/11/14 12:32:36;;;;;;;;;;;;;;;20.65;nan;102014.03;5000776;28;19917;-33
2022/11/14 12:35:06;;;;;;;;;;;;;;;20.93;nan;102015.94;5001219;28;19932;-33
2022/11/14 12:37:33;;;;;;;;;;;;;;;21.22;nan;102017.84;5000794;28;20379;-33
2022/11/14 12:40:06;;;;;;;;;;;;;;;21.31;nan;102014.22;5001102;28;20003;-33
2022/11/14 12:42:32;;;;;;;;;;;;;;;21.40;nan;102009.78;5001416;28;19929;-33
2022/11/14 12:44:58;;;;;;;;;;;;;;;21.51;nan;102002.25;4996707;28;20040;-33
2022/11/14 12:47:25;;;;;;;;;;;;;;;21.57;nan;101998.41;5002716;28;20168;-33
2022/11/14 12:49:53;;;;;;;;;;;;;;;21.73;nan;102001.75;4999419;28;20076;-33
2022/11/14 12:52:37;;;;;;;;;;;;;;;21.95;nan;101995.72;4998347;28;19921;-33
2022/11/14 12:55:02;;;;;;;;;;;;;;;22.48;nan;101998.22;5000428;28;19936;-33
2022/11/14 12:57:54;;;;;;;;;;;;;;;23.17;nan;101989.09;5002400;28;19925;-33
2022/11/14 13:00:19;;;;;;;;;;;;;;;24.04;nan;101987.28;4978983;28;20153;-34
2022/11/14 13:03:03;;;;;;;;;;;;;;;24.70;nan;101983.78;5000777;28;19922;-34